Point Comfort, Texas
Current Conditions -  °F | °C
As of 3:55 AM on Friday 24 Oct 2014 (Local Time) from KPKV Reporting Station
Clear Clear  
Wind Chill: 62°   Ceiling: Unl
Heat Index: 62°   Visibility: 10mi
Dew Point: 58°   Wind: 5mph
Humidity: 87%   Direction: 10°N
Pressure: 30.1"   Gusts: NA
Location:  28.68°N, 96.56°W
Report Text: KPKV 240855Z AUTO 01004KT 10SM CLR 17/15 A3010 RMK AO2 T01660145
Loading
Personal Weather Stations






























Interactive Weather Map
Tropical Storm Tracking
New forecast layout! Learn more

10-Day Weather Forecast

Advertisements
Track Severe Weather on mobile